Time;durP1;ratioP1;P1;durP2;ratioP2;P2;SDS_P1;SDS_P2;PMS_P1;PMS_P2;Temp;Humidity;BMP_temperature;BMP_pressure;BME280_temperature;BME280_humidity;BME280_pressure;Samples;Min_cycle;Max_cycle;Signal;HPM_P1;HPM_P2
2023/05/11 00:02:10;;;;;;;1.15;0.65;;;19.20;65.90;;;;;;4974361;28;20208;-69
2023/05/11 00:04:36;;;;;;;0.68;0.68;;;19.20;65.90;;;;;;4957044;28;20244;-68
2023/05/11 00:07:02;;;;;;;1.05;0.70;;;19.20;66.60;;;;;;4956782;28;20274;-68
2023/05/11 00:09:27;;;;;;;0.73;0.73;;;19.20;65.90;;;;;;4961602;28;20189;-68
2023/05/11 00:11:53;;;;;;;0.70;0.70;;;19.20;65.80;;;;;;4956964;28;20678;-69
2023/05/11 00:14:19;;;;;;;0.60;0.60;;;19.20;65.80;;;;;;4956692;28;20209;-68
2023/05/11 00:16:45;;;;;;;1.38;0.80;;;19.20;65.90;;;;;;4956894;28;20196;-68
2023/05/11 00:19:10;;;;;;;0.80;0.70;;;19.20;65.80;;;;;;4956692;28;20192;-68
2023/05/11 00:21:36;;;;;;;0.80;0.73;;;19.20;65.80;;;;;;4956754;28;20193;-68
2023/05/11 00:24:02;;;;;;;0.70;0.70;;;19.20;65.80;;;;;;4956555;28;20264;-68
2023/05/11 00:26:28;;;;;;;1.15;0.90;;;19.20;65.90;;;;;;4956372;28;20201;-68
2023/05/11 00:28:53;;;;;;;0.50;0.50;;;19.20;65.80;;;;;;4956809;28;20217;-69
2023/05/11 00:31:19;;;;;;;0.80;0.80;;;19.20;65.80;;;;;;4956642;28;20201;-68
2023/05/11 00:33:45;;;;;;;0.70;0.70;;;19.20;65.80;;;;;;4956611;28;20263;-68
2023/05/11 00:36:11;;;;;;;0.65;0.50;;;19.20;65.80;;;;;;4956337;28;20272;-68
2023/05/11 00:38:39;;;;;;;1.10;0.75;;;19.20;65.80;;;;;;4969330;28;20196;-68
2023/05/11 00:41:06;;;;;;;0.70;0.70;;;19.20;65.80;;;;;;4952653;28;20186;-69
2023/05/11 00:43:32;;;;;;;0.70;0.70;;;19.20;65.80;;;;;;4940635;28;20190;-69
2023/05/11 00:45:58;;;;;;;1.00;0.70;;;19.20;65.80;;;;;;4956026;28;20300;-68
2023/05/11 00:48:24;;;;;;;0.50;0.50;;;19.20;65.80;;;;;;4956216;28;20194;-68
2023/05/11 00:50:50;;;;;;;0.70;0.70;;;19.10;65.70;;;;;;4956661;28;20224;-68
2023/05/11 00:53:16;;;;;;;0.68;0.68;;;19.20;65.80;;;;;;4955925;28;20740;-68
2023/05/11 00:55:42;;;;;;;0.55;0.55;;;19.20;65.80;;;;;;4955785;28;20246;-68
2023/05/11 00:58:07;;;;;;;1.25;0.63;;;19.10;65.70;;;;;;4956132;28;20228;-68
2023/05/11 01:00:33;;;;;;;0.75;0.75;;;19.20;65.80;;;;;;4956159;28;20181;-68
2023/05/11 01:03:01;;;;;;;1.27;0.68;;;19.20;65.80;;;;;;4940295;28;20256;-69
2023/05/11 01:05:43;;;;;;;0.50;0.50;;;19.20;65.80;;;;;;4955776;28;20205;-67
2023/05/11 01:08:31;;;;;;;1.42;0.70;;;19.20;65.70;;;;;;4988314;28;20189;-69
2023/05/11 01:11:20;;;;;;;1.20;0.60;;;19.20;65.70;;;;;;4959218;28;20186;-68
2023/05/11 01:14:23;;;;;;;0.70;0.70;;;19.10;65.60;;;;;;4949714;28;20221;-68
2023/05/11 01:16:57;;;;;;;0.90;0.60;;;19.10;65.70;;;;;;4934168;28;20185;-68
2023/05/11 01:19:52;;;;;;;0.65;0.65;;;19.20;65.70;;;;;;4956270;28;20552;-68
2023/05/11 01:22:43;;;;;;;0.50;0.50;;;19.10;65.60;;;;;;4940022;28;20182;-69
2023/05/11 01:25:51;;;;;;;0.50;0.50;;;19.10;65.60;;;;;;4940443;28;20231;-68
2023/05/11 01:29:20;;;;;;;2.20;0.60;;;19.10;65.60;;;;;;4960005;28;20195;-68
2023/05/11 01:31:48;;;;;;;1.25;0.55;;;19.10;65.60;;;;;;4921187;28;20653;-68
2023/05/11 01:34:30;;;;;;;0.70;0.68;;;19.10;65.50;;;;;;4959502;28;20275;-68
2023/05/11 01:37:15;;;;;;;0.65;0.65;;;19.10;65.50;;;;;;4975778;28;20193;-68
2023/05/11 01:39:55;;;;;;;0.63;0.63;;;19.10;65.60;;;;;;4952697;28;20634;-68
2023/05/11 01:42:29;;;;;;;0.77;0.75;;;19.10;66.40;;;;;;4973938;28;20201;-68
2023/05/11 01:44:58;;;;;;;0.63;0.63;;;19.10;65.60;;;;;;4972442;28;20229;-68
2023/05/11 01:47:28;;;;;;;1.33;0.60;;;19.10;65.60;;;;;;4957728;28;20196;-69
2023/05/11 01:49:56;;;;;;;0.90;0.63;;;19.10;65.50;;;;;;4943528;28;20185;-68
2023/05/11 01:52:26;;;;;;;0.70;0.70;;;19.10;65.60;;;;;;4973961;28;20559;-68
2023/05/11 01:54:55;;;;;;;1.63;0.60;;;19.10;65.60;;;;;;4959189;28;20271;-67
2023/05/11 01:57:23;;;;;;;0.70;0.70;;;19.10;65.50;;;;;;4959258;28;20186;-68
2023/05/11 01:59:51;;;;;;;0.60;0.60;;;19.10;65.50;;;;;;4943418;28;20272;-68
2023/05/11 02:02:18;;;;;;;0.70;0.70;;;19.10;65.60;;;;;;4975471;28;20186;-68
2023/05/11 02:04:45;;;;;;;0.70;0.70;;;19.10;65.50;;;;;;4959393;28;20377;-68
2023/05/11 02:07:13;;;;;;;0.60;0.60;;;19.10;65.50;;;;;;4975115;28;20197;-69
2023/05/11 02:09:40;;;;;;;0.70;0.70;;;19.10;65.50;;;;;;4959401;28;20193;-68
2023/05/11 02:12:09;;;;;;;0.80;0.80;;;19.10;65.50;;;;;;4975365;28;20210;-68
2023/05/11 02:14:38;;;;;;;0.50;0.50;;;19.10;65.50;;;;;;4959228;28;20284;-68
2023/05/11 02:17:07;;;;;;;0.68;0.60;;;19.10;65.50;;;;;;4961389;28;20204;-69
2023/05/11 02:19:36;;;;;;;0.60;0.60;;;19.10;65.50;;;;;;4959248;28;20201;-68
2023/05/11 02:22:03;;;;;;;0.70;0.70;;;19.10;65.50;;;;;;4957881;28;20182;-68
2023/05/11 02:24:32;;;;;;;0.60;0.60;;;19.10;66.00;;;;;;4975060;28;20567;-68
2023/05/11 02:26:58;;;;;;;0.50;0.50;;;19.10;65.50;;;;;;4942996;28;20186;-69
2023/05/11 02:29:25;;;;;;;0.88;0.88;;;19.10;65.50;;;;;;4942732;28;20197;-68
2023/05/11 02:32:06;;;;;;;0.60;0.60;;;19.10;65.40;;;;;;4991438;28;20190;-68
2023/05/11 02:34:41;;;;;;;0.70;0.70;;;19.10;65.50;;;;;;4958570;28;20222;-68
2023/05/11 02:37:23;;;;;;;0.95;0.60;;;19.10;65.40;;;;;;4957435;28;20685;-69
2023/05/11 02:39:58;;;;;;;0.63;0.63;;;19.10;65.40;;;;;;4967965;28;20181;-68
2023/05/11 02:42:27;;;;;;;0.88;0.60;;;19.10;65.50;;;;;;4974822;28;20199;-68
2023/05/11 02:45:07;;;;;;;0.95;0.70;;;19.10;65.50;;;;;;4944225;28;20193;-68
2023/05/11 02:47:40;;;;;;;0.70;0.70;;;19.10;65.50;;;;;;4974414;28;20219;-68
2023/05/11 02:50:08;;;;;;;0.90;0.70;;;19.10;65.50;;;;;;4958451;28;20662;-68
2023/05/11 02:52:44;;;;;;;0.50;0.50;;;19.10;65.50;;;;;;4942619;28;20228;-68
2023/05/11 02:59:17;;;;;;;0.88;0.60;;;19.10;65.50;;;;;;4972459;28;20217;-68
2023/05/11 03:01:45;;;;;;;1.17;0.55;;;19.10;65.50;;;;;;4957009;28;20200;-68
2023/05/11 03:04:11;;;;;;;0.40;0.40;;;19.10;65.50;;;;;;4942242;28;20306;-68
2023/05/11 03:06:37;;;;;;;0.60;0.60;;;19.10;65.50;;;;;;4958070;28;20354;-68
2023/05/11 03:09:05;;;;;;;0.45;0.45;;;19.10;65.50;;;;;;4958266;28;20242;-67
2023/05/11 03:11:34;;;;;;;0.60;0.60;;;19.10;65.50;;;;;;4958344;28;20196;-68
2023/05/11 03:14:01;;;;;;;0.50;0.50;;;19.10;65.50;;;;;;4971023;28;20241;-68
2023/05/11 03:16:27;;;;;;;0.60;0.60;;;19.10;65.40;;;;;;4955849;28;20699;-68
2023/05/11 03:18:55;;;;;;;1.30;0.60;;;19.10;65.40;;;;;;4958061;28;20190;-67
2023/05/11 03:21:23;;;;;;;0.52;0.52;;;19.10;65.40;;;;;;4958241;28;20200;-68
2023/05/11 03:23:49;;;;;;;0.90;0.90;;;19.10;65.50;;;;;;4942063;28;20692;-68
2023/05/11 03:26:20;;;;;;;1.27;0.68;;;19.10;65.40;;;;;;4957809;28;20608;-68
2023/05/11 03:28:49;;;;;;;0.60;0.50;;;19.10;65.50;;;;;;4982603;28;20189;-68
2023/05/11 03:31:15;;;;;;;0.60;0.60;;;19.10;65.40;;;;;;4989998;28;20252;-68
2023/05/11 03:33:41;;;;;;;0.50;0.47;;;19.10;65.40;;;;;;4982010;28;20218;-68
2023/05/11 03:36:11;;;;;;;0.52;0.52;;;19.10;65.50;;;;;;4965958;28;20205;-68
2023/05/11 03:38:38;;;;;;;0.47;0.47;;;19.10;65.40;;;;;;4981806;28;20190;-68
2023/05/11 03:41:07;;;;;;;0.77;0.77;;;19.10;65.50;;;;;;4975627;28;20190;-68
2023/05/11 03:43:37;;;;;;;0.82;0.50;;;19.10;65.40;;;;;;4956530;28;20198;-72
2023/05/11 03:46:05;;;;;;;0.60;0.60;;;19.00;65.40;;;;;;4965526;28;20210;-68
2023/05/11 03:48:32;;;;;;;0.60;0.60;;;19.00;65.40;;;;;;4981577;28;20198;-68
2023/05/11 03:50:58;;;;;;;0.60;0.60;;;19.10;65.40;;;;;;4952599;29;20206;-68
2023/05/11 03:53:25;;;;;;;0.60;0.60;;;19.10;65.40;;;;;;4979015;28;20226;-68
2023/05/11 03:55:51;;;;;;;0.50;0.50;;;19.10;65.50;;;;;;4985168;28;20222;-68
2023/05/11 03:58:17;;;;;;;0.60;0.60;;;19.00;65.30;;;;;;4954107;29;20190;-68
2023/05/11 04:00:43;;;;;;;0.60;0.60;;;19.00;65.40;;;;;;4973262;28;20174;-68
2023/05/11 04:03:10;;;;;;;0.50;0.50;;;19.00;65.40;;;;;;4957676;28;20209;-68
2023/05/11 04:05:37;;;;;;;0.50;0.50;;;19.10;65.40;;;;;;4972932;28;20212;-69
2023/05/11 04:08:06;;;;;;;0.50;0.50;;;19.10;65.40;;;;;;4957246;28;20189;-68
2023/05/11 04:10:32;;;;;;;0.65;0.50;;;19.00;65.40;;;;;;4957595;28;20256;-68
2023/05/11 04:12:58;;;;;;;0.50;0.50;;;19.00;65.40;;;;;;4973410;28;20579;-68
2023/05/11 04:15:24;;;;;;;0.30;0.30;;;19.00;65.40;;;;;;4973785;28;20213;-68
2023/05/11 04:17:49;;;;;;;0.50;0.50;;;19.00;65.40;;;;;;4959882;28;20182;-69
2023/05/11 04:20:15;;;;;;;0.43;0.40;;;19.00;65.30;;;;;;4960401;28;20193;-68
2023/05/11 04:22:41;;;;;;;0.50;0.50;;;19.00;65.30;;;;;;4956684;28;20208;-69
2023/05/11 04:25:07;;;;;;;0.70;0.60;;;19.10;65.50;;;;;;4973791;28;20223;-68
2023/05/11 04:27:33;;;;;;;0.73;0.50;;;19.10;65.50;;;;;;4956241;28;20248;-68
2023/05/11 04:30:00;;;;;;;0.45;0.45;;;19.00;65.40;;;;;;4956885;28;20190;-68
2023/05/11 04:32:29;;;;;;;0.70;0.70;;;19.00;65.40;;;;;;4956749;28;20178;-68
2023/05/11 04:34:55;;;;;;;0.50;0.50;;;19.00;65.40;;;;;;4956581;28;20228;-68
2023/05/11 04:37:23;;;;;;;0.60;0.60;;;19.00;65.40;;;;;;4956995;28;20180;-68
2023/05/11 04:39:50;;;;;;;0.40;0.40;;;19.00;65.40;;;;;;4941121;28;20189;-68
2023/05/11 04:42:16;;;;;;;0.70;0.70;;;19.00;65.40;;;;;;4940678;28;20194;-67
2023/05/11 04:44:44;;;;;;;0.52;0.52;;;19.00;66.10;;;;;;4956632;28;20244;-68
2023/05/11 04:47:10;;;;;;;0.60;0.60;;;19.00;65.40;;;;;;4956416;28;20193;-67
2023/05/11 04:49:36;;;;;;;0.40;0.40;;;19.00;65.40;;;;;;4957122;28;20189;-68
2023/05/11 04:52:02;;;;;;;0.40;0.40;;;19.00;65.40;;;;;;4956907;28;20201;-68
2023/05/11 04:54:30;;;;;;;0.63;0.63;;;19.10;65.50;;;;;;4940637;28;20663;-68
2023/05/11 04:56:56;;;;;;;0.60;0.60;;;19.00;65.40;;;;;;4956472;28;20216;-68
2023/05/11 04:59:22;;;;;;;0.50;0.50;;;19.00;65.40;;;;;;4956805;28;20280;-70
2023/05/11 05:01:47;;;;;;;0.60;0.47;;;19.00;65.40;;;;;;4973569;28;20185;-68
2023/05/11 05:04:13;;;;;;;0.50;0.50;;;19.00;65.40;;;;;;4957115;28;20649;-68
2023/05/11 05:06:39;;;;;;;0.47;0.47;;;19.00;65.40;;;;;;4955986;28;20225;-68
2023/05/11 05:09:05;;;;;;;0.60;0.60;;;19.00;65.30;;;;;;4956147;28;20196;-69
2023/05/11 05:11:31;;;;;;;0.50;0.50;;;19.00;65.40;;;;;;4955996;28;20209;-68
2023/05/11 05:13:57;;;;;;;0.50;0.50;;;19.00;65.30;;;;;;4956061;28;20205;-69
2023/05/11 05:16:23;;;;;;;0.70;0.70;;;19.00;65.40;;;;;;4940060;28;20214;-68
2023/05/11 05:18:49;;;;;;;1.40;0.50;;;19.00;65.40;;;;;;4988290;28;20181;-67
2023/05/11 05:21:14;;;;;;;0.50;0.50;;;19.10;65.50;;;;;;4955978;28;20200;-68
2023/05/11 05:23:40;;;;;;;0.60;0.60;;;19.00;65.30;;;;;;4956088;28;20205;-68
2023/05/11 05:26:06;;;;;;;0.40;0.40;;;19.00;65.30;;;;;;4955935;28;20221;-69
2023/05/11 05:28:34;;;;;;;0.40;0.40;;;19.10;65.40;;;;;;4940300;28;20201;-68
2023/05/11 05:31:01;;;;;;;0.40;0.40;;;19.10;65.40;;;;;;4940147;28;20204;-68
2023/05/11 05:33:27;;;;;;;0.60;0.60;;;19.00;65.30;;;;;;4955899;28;20304;-67
2023/05/11 05:35:53;;;;;;;1.17;0.57;;;19.00;65.40;;;;;;4955772;28;20304;-69
2023/05/11 05:38:19;;;;;;;0.50;0.50;;;19.00;65.30;;;;;;4940396;28;20188;-69
2023/05/11 05:40:45;;;;;;;0.60;0.60;;;19.10;65.50;;;;;;4971454;28;20216;-68
2023/05/11 05:43:11;;;;;;;0.50;0.50;;;19.00;65.40;;;;;;4971723;28;20204;-69
2023/05/11 05:45:37;;;;;;;0.68;0.68;;;19.00;65.40;;;;;;4939471;28;20217;-66
2023/05/11 05:48:05;;;;;;;0.55;0.55;;;19.00;65.40;;;;;;4955770;28;20189;-68
2023/05/11 05:50:32;;;;;;;0.40;0.40;;;19.00;65.30;;;;;;4955702;28;20197;-68
2023/05/11 05:52:58;;;;;;;0.50;0.50;;;19.00;65.40;;;;;;4955722;28;20256;-69
2023/05/11 05:55:26;;;;;;;0.50;0.50;;;19.10;65.50;;;;;;4955215;28;20257;-68
2023/05/11 05:57:52;;;;;;;0.50;0.50;;;19.00;65.40;;;;;;4964116;28;20189;-68
2023/05/11 06:00:19;;;;;;;0.52;0.52;;;19.10;65.50;;;;;;4956111;28;20193;-68
2023/05/11 06:02:52;;;;;;;1.08;0.50;;;19.00;65.40;;;;;;4956135;28;20601;-68
2023/05/11 06:05:23;;;;;;;0.50;0.50;;;19.10;65.50;;;;;;4971228;28;20260;-69
2023/05/11 06:07:49;;;;;;;0.40;0.40;;;19.10;65.50;;;;;;4955818;28;20190;-68
2023/05/11 06:10:15;;;;;;;0.80;0.60;;;19.10;65.50;;;;;;4955737;28;20190;-69
2023/05/11 06:12:41;;;;;;;0.50;0.50;;;19.10;65.40;;;;;;4958619;28;20193;-68
2023/05/11 06:15:07;;;;;;;0.32;0.32;;;19.10;65.50;;;;;;4959417;28;20248;-68
2023/05/11 06:17:36;;;;;;;0.60;0.60;;;19.10;66.30;;;;;;4959075;28;20644;-68
2023/05/11 06:20:04;;;;;;;0.60;0.60;;;19.10;65.50;;;;;;4959198;28;20193;-68
2023/05/11 06:22:30;;;;;;;0.50;0.50;;;19.10;65.50;;;;;;4943396;28;20186;-68
2023/05/11 06:24:57;;;;;;;1.67;0.70;;;19.10;65.50;;;;;;4943205;28;20205;-68
2023/05/11 06:27:23;;;;;;;0.60;0.50;;;19.10;65.60;;;;;;4958831;28;20193;-68
2023/05/11 06:29:54;;;;;;;0.77;0.68;;;19.10;65.60;;;;;;4943520;28;20213;-68
2023/05/11 06:32:20;;;;;;;0.60;0.50;;;19.10;65.60;;;;;;4959310;28;20205;-68
2023/05/11 06:34:46;;;;;;;0.55;0.55;;;19.00;65.50;;;;;;4958544;28;20226;-68
2023/05/11 06:37:19;;;;;;;0.70;0.70;;;19.10;65.60;;;;;;4958870;28;20201;-67
2023/05/11 06:39:47;;;;;;;0.57;0.57;;;19.00;65.50;;;;;;4943349;28;20232;-69
2023/05/11 06:42:13;;;;;;;0.45;0.40;;;19.10;65.60;;;;;;4958979;28;20189;-69
2023/05/11 06:44:40;;;;;;;0.63;0.60;;;19.00;65.50;;;;;;4958653;28;20213;-68
2023/05/11 06:47:09;;;;;;;0.50;0.50;;;19.00;65.50;;;;;;4942575;28;20224;-69
2023/05/11 06:49:35;;;;;;;0.38;0.38;;;19.10;65.60;;;;;;4958776;28;20229;-68
2023/05/11 06:52:00;;;;;;;0.60;0.60;;;19.00;65.50;;;;;;4958552;28;20212;-68
2023/05/11 06:54:26;;;;;;;0.73;0.60;;;19.10;65.60;;;;;;4958202;28;20224;-67
2023/05/11 06:56:52;;;;;;;0.52;0.52;;;19.10;65.60;;;;;;4942546;28;20190;-68
2023/05/11 06:59:18;;;;;;;0.60;0.60;;;19.00;65.50;;;;;;4958742;28;20248;-68
2023/05/11 07:01:44;;;;;;;0.85;0.50;;;19.00;65.50;;;;;;4942737;28;20264;-68
2023/05/11 07:04:09;;;;;;;0.80;0.80;;;19.00;65.50;;;;;;4958683;28;20189;-68
2023/05/11 07:06:35;;;;;;;0.70;0.70;;;19.10;65.50;;;;;;4958300;28;20232;-68
2023/05/11 07:09:02;;;;;;;1.77;0.50;;;19.10;65.60;;;;;;4970998;28;20202;-69
2023/05/11 07:11:29;;;;;;;0.55;0.55;;;19.10;65.60;;;;;;4954526;28;20197;-68
2023/05/11 07:13:55;;;;;;;0.65;0.65;;;19.10;65.60;;;;;;4942036;28;20216;-68
2023/05/11 07:16:22;;;;;;;1.23;0.60;;;19.10;65.60;;;;;;4957817;28;20209;-68
2023/05/11 07:18:48;;;;;;;1.13;0.50;;;19.10;65.50;;;;;;4958172;28;20189;-67
2023/05/11 07:21:14;;;;;;;0.52;0.50;;;19.10;65.60;;;;;;4942313;28;20216;-69
2023/05/11 07:23:40;;;;;;;0.70;0.50;;;19.10;65.50;;;;;;4957256;28;20674;-68
2023/05/11 07:26:08;;;;;;;1.25;0.57;;;19.10;65.50;;;;;;4941669;28;20225;-69
2023/05/11 07:28:37;;;;;;;0.40;0.40;;;19.10;65.50;;;;;;4941826;28;20246;-68
2023/05/11 07:31:03;;;;;;;2.08;0.70;;;19.10;65.50;;;;;;4957797;28;20696;-68
2023/05/11 07:33:29;;;;;;;0.50;0.50;;;19.10;65.50;;;;;;4941725;28;20213;-68
2023/05/11 07:35:55;;;;;;;0.50;0.50;;;19.10;65.50;;;;;;4957593;28;20209;-68
2023/05/11 07:38:21;;;;;;;0.93;0.52;;;19.10;65.50;;;;;;4973813;28;20213;-68
2023/05/11 07:40:47;;;;;;;2.55;0.60;;;19.10;65.50;;;;;;4941546;28;20193;-68
2023/05/11 07:43:12;;;;;;;0.70;0.45;;;19.10;65.50;;;;;;4957694;28;20276;-68
2023/05/11 07:45:39;;;;;;;0.40;0.40;;;19.10;65.50;;;;;;4973353;28;20225;-69
2023/05/11 07:48:04;;;;;;;0.82;0.75;;;19.10;65.50;;;;;;4941431;28;20189;-69
2023/05/11 07:50:30;;;;;;;0.70;0.60;;;19.10;65.60;;;;;;4957855;28;20193;-68
2023/05/11 07:52:56;;;;;;;0.75;0.75;;;19.10;65.60;;;;;;4941707;28;20301;-69
2023/05/11 07:55:25;;;;;;;0.30;0.30;;;19.10;65.50;;;;;;4957343;28;20764;-67
2023/05/11 07:57:53;;;;;;;0.60;0.60;;;19.10;65.40;;;;;;4974618;28;20334;-68
2023/05/11 08:00:19;;;;;;;0.80;0.80;;;19.10;65.50;;;;;;4957193;28;20190;-68
2023/05/11 08:02:45;;;;;;;1.50;0.70;;;19.10;65.50;;;;;;4974596;28;20189;-68
2023/05/11 08:05:11;;;;;;;0.82;0.63;;;19.10;65.50;;;;;;4956985;28;20261;-67
2023/05/11 08:07:37;;;;;;;0.60;0.60;;;19.10;65.50;;;;;;4957067;28;20201;-68
2023/05/11 08:10:03;;;;;;;0.70;0.70;;;19.10;65.50;;;;;;4941322;28;20196;-68
2023/05/11 08:12:29;;;;;;;0.52;0.52;;;19.10;65.50;;;;;;4957157;28;20225;-69
2023/05/11 08:14:55;;;;;;;2.05;0.60;;;19.10;65.50;;;;;;4956939;28;20256;-69
2023/05/11 08:17:21;;;;;;;0.65;0.65;;;19.10;65.50;;;;;;4956766;28;20281;-68
2023/05/11 08:19:46;;;;;;;1.05;0.60;;;19.10;65.50;;;;;;4957197;28;20194;-68
2023/05/11 08:22:12;;;;;;;0.65;0.60;;;19.10;65.50;;;;;;4940870;28;20252;-66
2023/05/11 08:24:38;;;;;;;0.63;0.60;;;19.10;65.50;;;;;;4956547;28;20218;-68
2023/05/11 08:27:04;;;;;;;0.75;0.50;;;19.10;65.50;;;;;;4956450;28;20197;-69
2023/05/11 08:29:30;;;;;;;0.73;0.50;;;19.10;65.50;;;;;;4956258;28;20211;-67
2023/05/11 08:31:57;;;;;;;0.40;0.40;;;19.10;65.50;;;;;;4957042;28;20205;-69
2023/05/11 08:34:23;;;;;;;0.50;0.50;;;19.10;65.50;;;;;;4969298;28;20265;-68
2023/05/11 08:36:49;;;;;;;0.95;0.65;;;19.10;65.50;;;;;;4970818;28;20190;-68
2023/05/11 08:39:15;;;;;;;0.65;0.65;;;19.10;65.50;;;;;;4956474;28;20185;-69
2023/05/11 08:41:42;;;;;;;0.65;0.60;;;19.10;65.50;;;;;;4973792;28;20193;-69
2023/05/11 08:44:09;;;;;;;0.50;0.50;;;19.10;65.40;;;;;;4956759;28;20198;-68
2023/05/11 08:46:40;;;;;;;0.50;0.50;;;19.10;66.30;;;;;;4956426;28;20213;-69
2023/05/11 08:49:07;;;;;;;0.40;0.40;;;19.10;65.50;;;;;;4938360;29;20209;-69
2023/05/11 08:51:34;;;;;;;0.60;0.50;;;19.10;65.40;;;;;;4944724;28;20201;-69
2023/05/11 08:53:59;;;;;;;0.50;0.50;;;19.10;65.40;;;;;;4956304;28;20213;-69
2023/05/11 08:56:28;;;;;;;0.60;0.50;;;19.10;65.40;;;;;;4939914;28;20216;-68
2023/05/11 08:58:55;;;;;;;0.50;0.50;;;19.10;65.40;;;;;;4956285;28;20201;-68
2023/05/11 09:01:23;;;;;;;0.73;0.60;;;19.10;65.40;;;;;;4956357;28;20252;-68
2023/05/11 09:03:50;;;;;;;0.50;0.50;;;19.10;65.40;;;;;;4940169;28;20203;-68
2023/05/11 09:06:18;;;;;;;0.40;0.40;;;19.10;65.50;;;;;;4956270;28;20270;-68
2023/05/11 09:08:45;;;;;;;0.63;0.50;;;19.10;65.40;;;;;;4969388;28;20237;-68
2023/05/11 09:11:11;;;;;;;0.40;0.40;;;19.10;65.40;;;;;;4941460;28;20193;-68
2023/05/11 09:13:37;;;;;;;0.70;0.50;;;19.10;65.40;;;;;;4956172;28;20232;-68
2023/05/11 09:16:03;;;;;;;0.57;0.57;;;19.10;65.40;;;;;;4973188;28;20209;-68
2023/05/11 09:18:28;;;;;;;1.33;0.50;;;19.10;65.50;;;;;;4956082;28;20271;-68
2023/05/11 09:20:54;;;;;;;0.50;0.50;;;19.10;65.30;;;;;;4956239;28;20186;-68
2023/05/11 09:23:30;;;;;;;0.50;0.50;;;19.10;65.40;;;;;;4973292;28;20288;-68
2023/05/11 09:25:56;;;;;;;0.57;0.50;;;19.10;65.40;;;;;;4955751;28;20709;-68
2023/05/11 09:28:26;;;;;;;0.50;0.50;;;19.10;66.10;;;;;;4956067;28;20193;-69
2023/05/11 09:30:52;;;;;;;0.50;0.50;;;19.10;65.30;;;;;;4973293;28;20573;-68
2023/05/11 09:33:24;;;;;;;0.50;0.50;;;19.10;65.30;;;;;;4939968;28;20214;-67
2023/05/11 09:35:51;;;;;;;0.50;0.50;;;19.10;65.30;;;;;;4955687;28;20236;-68
2023/05/11 09:38:21;;;;;;;0.50;0.50;;;19.10;65.30;;;;;;4973122;28;20335;-68
2023/05/11 09:40:55;;;;;;;0.60;0.60;;;19.10;65.30;;;;;;4940300;28;20251;-68
2023/05/11 09:43:28;;;;;;;0.60;0.60;;;19.10;65.40;;;;;;4955974;28;20225;-68
2023/05/11 09:46:05;;;;;;;0.60;0.60;;;19.10;65.30;;;;;;4939899;28;20221;-68
2023/05/11 09:48:32;;;;;;;0.50;0.50;;;19.10;65.50;;;;;;4959685;28;20204;-69
2023/05/11 09:51:07;;;;;;;0.47;0.47;;;19.10;65.40;;;;;;4959797;28;20336;-68
2023/05/11 09:53:41;;;;;;;0.60;0.60;;;19.10;65.30;;;;;;4959918;28;20286;-68
2023/05/11 09:56:08;;;;;;;0.85;0.50;;;19.10;65.40;;;;;;4959547;28;20228;-68
2023/05/11 09:58:56;;;;;;;0.45;0.45;;;19.20;65.40;;;;;;4943549;28;20190;-69
2023/05/11 10:01:31;;;;;;;1.00;0.60;;;19.20;65.40;;;;;;4962987;28;20186;-68
2023/05/11 10:04:00;;;;;;;0.65;0.65;;;19.10;65.30;;;;;;4959732;28;20211;-68
2023/05/11 10:06:27;;;;;;;0.50;0.50;;;19.20;65.40;;;;;;4976553;28;20213;-68
2023/05/11 10:08:53;;;;;;;1.33;0.55;;;19.10;65.40;;;;;;4959569;28;20201;-68
2023/05/11 10:11:23;;;;;;;0.57;0.50;;;19.10;65.30;;;;;;4959318;28;20214;-68
2023/05/11 10:13:50;;;;;;;0.57;0.50;;;19.10;65.40;;;;;;4959085;28;20652;-68
2023/05/11 10:16:18;;;;;;;0.50;0.50;;;19.10;65.40;;;;;;4975395;28;20198;-69
2023/05/11 10:18:45;;;;;;;0.98;0.60;;;19.20;65.50;;;;;;4991641;28;20189;-69
2023/05/11 10:21:14;;;;;;;0.60;0.60;;;19.20;65.50;;;;;;4945059;28;20177;-68
2023/05/11 10:23:41;;;;;;;0.80;0.60;;;19.20;65.50;;;;;;4959444;28;20197;-67
2023/05/11 10:26:09;;;;;;;0.50;0.50;;;19.10;65.40;;;;;;4958832;28;20232;-69
2023/05/11 10:28:36;;;;;;;0.55;0.55;;;19.10;65.40;;;;;;4959164;28;20197;-68
2023/05/11 10:31:03;;;;;;;0.70;0.70;;;19.20;65.60;;;;;;4976135;28;20198;-68
2023/05/11 10:33:30;;;;;;;0.43;0.43;;;19.20;65.50;;;;;;4959153;28;20241;-68
2023/05/11 10:35:56;;;;;;;0.88;0.80;;;19.20;65.60;;;;;;4974740;28;20257;-69
2023/05/11 10:38:23;;;;;;;0.77;0.60;;;19.20;65.60;;;;;;4958967;28;20189;-69
2023/05/11 10:40:56;;;;;;;0.60;0.60;;;19.20;65.60;;;;;;4958830;28;20798;-67
2023/05/11 10:43:53;;;;;;;1.02;0.70;;;19.20;65.60;;;;;;4971784;28;20198;-68
2023/05/11 10:46:49;;;;;;;1.17;0.60;;;19.20;65.70;;;;;;4928160;28;20256;-68
2023/05/11 10:50:03;;;;;;;0.65;0.60;;;19.20;65.70;;;;;;4945675;28;20210;-69
2023/05/11 10:53:12;;;;;;;0.65;0.60;;;19.20;65.70;;;;;;4939447;29;20200;-67
2023/05/11 10:56:15;;;;;;;1.20;0.70;;;19.20;65.70;;;;;;4970374;28;20241;-67
2023/05/11 10:59:14;;;;;;;0.63;0.63;;;19.20;65.80;;;;;;4938207;29;20190;-69
2023/05/11 11:01:41;;;;;;;0.77;0.50;;;19.20;66.50;;;;;;4942673;28;20205;-68
2023/05/11 11:04:12;;;;;;;3.03;0.90;;;19.20;65.70;;;;;;4942336;28;20281;-68
2023/05/11 11:06:42;;;;;;;0.60;0.60;;;19.20;65.60;;;;;;4975547;28;20220;-69
2023/05/11 11:09:15;;;;;;;0.70;0.70;;;19.20;65.70;;;;;;4958209;28;20256;-68
2023/05/11 11:11:46;;;;;;;1.00;0.60;;;19.20;65.70;;;;;;4942107;28;20193;-68
2023/05/11 11:14:14;;;;;;;1.42;0.70;;;19.20;65.80;;;;;;4971213;28;20226;-68
2023/05/11 11:17:00;;;;;;;1.27;0.47;;;19.20;65.70;;;;;;4954030;28;20597;-69
2023/05/11 11:19:29;;;;;;;0.88;0.63;;;19.20;65.70;;;;;;4970917;28;20194;-69
2023/05/11 11:22:00;;;;;;;0.73;0.65;;;19.30;66.00;;;;;;4954813;29;20194;-69
2023/05/11 11:24:38;;;;;;;0.40;0.40;;;19.20;65.80;;;;;;4939063;29;20190;-68
2023/05/11 11:27:08;;;;;;;0.60;0.60;;;19.30;65.90;;;;;;4973257;28;20688;-68
2023/05/11 11:29:35;;;;;;;0.45;0.45;;;19.20;65.70;;;;;;4957879;28;20720;-69
2023/05/11 11:32:30;;;;;;;0.98;0.85;;;19.20;65.70;;;;;;4957718;28;20198;-69
2023/05/11 11:34:56;;;;;;;0.57;0.57;;;19.30;65.90;;;;;;4941606;28;20730;-68
2023/05/11 11:37:22;;;;;;;0.60;0.60;;;19.30;65.80;;;;;;4957646;28;20193;-69
2023/05/11 11:39:53;;;;;;;1.40;0.82;;;19.30;65.80;;;;;;4957579;28;20665;-69
2023/05/11 11:42:34;;;;;;;0.63;0.63;;;19.30;65.70;;;;;;4957942;28;20716;-68
2023/05/11 11:45:48;;;;;;;1.00;0.80;;;19.30;65.80;;;;;;4957500;28;20217;-69
2023/05/11 11:48:19;;;;;;;0.60;0.50;;;19.30;65.80;;;;;;4884647;29;20244;-69
2023/05/11 11:50:47;;;;;;;2.00;0.60;;;19.30;65.80;;;;;;4899524;29;20184;-68
2023/05/11 11:53:36;;;;;;;0.70;0.70;;;19.30;65.80;;;;;;4917487;28;20235;-69
2023/05/11 11:56:07;;;;;;;2.80;0.90;;;19.30;65.70;;;;;;4941082;28;20233;-69
2023/05/11 11:58:43;;;;;;;1.77;0.77;;;19.30;65.70;;;;;;4957370;28;20357;-69
2023/05/11 12:01:13;;;;;;;0.80;0.80;;;19.30;65.70;;;;;;4957525;28;20197;-68
2023/05/11 12:03:42;;;;;;;2.03;0.50;;;19.30;66.00;;;;;;4957110;28;20211;-69
2023/05/11 12:06:09;;;;;;;2.40;0.73;;;19.30;65.80;;;;;;4957160;28;20217;-67
2023/05/11 12:08:38;;;;;;;0.98;0.60;;;19.30;65.80;;;;;;4957481;28;20326;-69
2023/05/11 12:11:05;;;;;;;1.15;0.65;;;19.30;65.80;;;;;;4941043;28;20285;-67
2023/05/11 12:13:33;;;;;;;0.80;0.70;;;19.30;66.00;;;;;;4957140;28;20217;-68
2023/05/11 12:16:10;;;;;;;2.55;0.80;;;19.30;65.90;;;;;;4956972;28;20592;-69
2023/05/11 12:18:36;;;;;;;1.67;0.70;;;19.30;65.80;;;;;;4957003;28;20189;-69
2023/05/11 12:21:02;;;;;;;1.10;0.70;;;19.30;65.80;;;;;;4956857;28;20197;-68
2023/05/11 12:23:28;;;;;;;1.08;0.80;;;19.30;65.90;;;;;;4974255;28;20201;-69
2023/05/11 12:26:05;;;;;;;0.98;0.70;;;19.30;65.70;;;;;;4956478;28;20793;-69
2023/05/11 12:28:35;;;;;;;1.00;0.88;;;19.30;66.10;;;;;;4969406;28;20190;-70
2023/05/11 12:31:01;;;;;;;2.13;0.85;;;19.30;65.90;;;;;;4954684;28;20281;-68
2023/05/11 12:33:27;;;;;;;1.02;0.77;;;19.30;65.90;;;;;;4956875;28;20225;-69
2023/05/11 12:35:55;;;;;;;1.88;0.98;;;19.30;65.80;;;;;;4954893;28;20201;-69
2023/05/11 12:38:21;;;;;;;1.65;0.70;;;19.30;66.20;;;;;;4974061;28;20212;-71
2023/05/11 12:40:52;;;;;;;0.85;0.70;;;19.30;65.90;;;;;;4956730;28;20244;-69
2023/05/11 12:43:21;;;;;;;0.95;0.60;;;19.30;65.90;;;;;;4940728;28;20625;-69
2023/05/11 12:45:48;;;;;;;2.78;0.90;;;19.30;65.90;;;;;;4956456;28;20244;-69
2023/05/11 12:48:14;;;;;;;0.85;0.85;;;19.30;65.80;;;;;;4956746;28;20182;-69
2023/05/11 12:50:45;;;;;;;1.75;0.60;;;19.30;65.90;;;;;;4956687;28;20217;-70
2023/05/11 12:53:13;;;;;;;0.90;0.70;;;19.30;66.00;;;;;;4940624;28;20200;-69
2023/05/11 12:55:40;;;;;;;0.80;0.70;;;19.30;66.10;;;;;;4956079;28;20264;-69
2023/05/11 12:58:17;;;;;;;0.93;0.70;;;19.30;65.90;;;;;;4956241;28;20213;-70
2023/05/11 13:01:09;;;;;;;1.48;0.85;;;19.30;65.90;;;;;;4989026;28;20176;-69
2023/05/11 13:03:35;;;;;;;0.88;0.80;;;19.30;66.00;;;;;;4937570;28;20204;-69
2023/05/11 13:06:12;;;;;;;1.67;0.77;;;19.30;65.90;;;;;;4988210;28;20209;-69